CheckWX is a tool to help pilots better visualize weather data.  It is not intended as a substitute for an official pre-flight weather briefing.

20:17:48 UTC

Y50 METAR
Wautoma Municipal Airport
Wautoma, Wisconsin, USA
Current

15 mins ago

KY50 232003Z AUTO 08005KT 3SM -SN BR BKN009 OVC013 M01/M02 A3002 RMK AO2 CIG 007V011 P0000 FZRANO $
Observed
Jan-23 @ 20:03 UTC
Wind
  • 080° at 5 KTS
Visibility
3 SM
Flight Rules
IFR
Conditions
Light Snow, Mist
Cloud Levels
  • Broken at 900' AGL
  • Overcast at 1,300' AGL
Temperature
-1°C / 30°F
Dewpoint
-2°C / 28°F
Humidity
93%
Altimeter
30.02" Hg
Pressure
1016.62 hPa
Current Rain
0.01"
Previous

22 mins ago

KY50 231956Z AUTO 07006KT 3SM -SN BR OVC011 00/M02 A3002 RMK AO2 SLP174 P0000 T00001017 FZRANO $
Observed
Jan-23 @ 19:56 UTC
Wind
  • 070° at 6 KTS
Visibility
3 SM
Flight Rules
MVFR
Conditions
Light Snow, Mist
Cloud Levels
  • Overcast at 1,100' AGL
Temperature
C / 32°F
Dewpoint
-2°C / 28°F
Humidity
87%
Altimeter
30.02" Hg
Pressure
1016.62 hPa
Current Rain
0.01"
Previous

33 mins ago

KY50 231945Z AUTO 08005KT 3SM -SN BR SCT009 OVC013 00/M02 A3002 RMK AO2 P0000 FZRANO $
Observed
Jan-23 @ 19:45 UTC
Wind
  • 080° at 5 KTS
Visibility
3 SM
Flight Rules
MVFR
Conditions
Light Snow, Mist
Cloud Levels
  • Scattered at 900' AGL
  • Overcast at 1,300' AGL
Temperature
C / 32°F
Dewpoint
-2°C / 28°F
Humidity
87%
Altimeter
30.02" Hg
Pressure
1016.62 hPa
Current Rain
0.01"